sensor_id;sensor_type;location;lat;lon;timestamp;P1;durP1;ratioP1;P2;durP2;ratioP2
62014;SDS011;47970;52.396;9.586;2023-02-26T00:00:52;2.50;;;0.90;;
62014;SDS011;47970;52.396;9.586;2023-02-26T00:03:17;2.27;;;0.90;;
62014;SDS011;47970;52.396;9.586;2023-02-26T00:05:42;3.60;;;0.87;;
62014;SDS011;47970;52.396;9.586;2023-02-26T00:08:07;3.63;;;1.17;;
62014;SDS011;47970;52.396;9.586;2023-02-26T00:10:32;1.48;;;0.73;;
62014;SDS011;47970;52.396;9.586;2023-02-26T00:12:58;3.33;;;1.00;;
62014;SDS011;47970;52.396;9.586;2023-02-26T00:15:23;2.40;;;0.95;;
62014;SDS011;47970;52.396;9.586;2023-02-26T00:17:59;3.38;;;1.08;;
62014;SDS011;47970;52.396;9.586;2023-02-26T00:20:26;4.75;;;1.05;;
62014;SDS011;47970;52.396;9.586;2023-02-26T00:22:51;2.10;;;0.90;;
62014;SDS011;47970;52.396;9.586;2023-02-26T00:25:16;2.38;;;0.88;;
62014;SDS011;47970;52.396;9.586;2023-02-26T00:27:42;2.90;;;1.17;;
62014;SDS011;47970;52.396;9.586;2023-02-26T00:30:08;5.93;;;1.20;;
62014;SDS011;47970;52.396;9.586;2023-02-26T00:32:34;1.95;;;1.00;;
62014;SDS011;47970;52.396;9.586;2023-02-26T00:34:59;1.67;;;0.80;;
62014;SDS011;47970;52.396;9.586;2023-02-26T00:42:21;2.67;;;0.90;;
62014;SDS011;47970;52.396;9.586;2023-02-26T00:44:46;4.45;;;1.00;;
62014;SDS011;47970;52.396;9.586;2023-02-26T00:55:05;2.80;;;1.30;;
62014;SDS011;47970;52.396;9.586;2023-02-26T00:57:31;4.70;;;1.48;;
62014;SDS011;47970;52.396;9.586;2023-02-26T00:59:56;3.47;;;1.10;;
62014;SDS011;47970;52.396;9.586;2023-02-26T01:02:21;3.07;;;0.97;;
62014;SDS011;47970;52.396;9.586;2023-02-26T01:04:47;1.63;;;0.85;;
62014;SDS011;47970;52.396;9.586;2023-02-26T01:07:12;3.70;;;0.98;;
62014;SDS011;47970;52.396;9.586;2023-02-26T01:09:38;2.83;;;1.10;;
62014;SDS011;47970;52.396;9.586;2023-02-26T01:12:05;2.90;;;0.90;;
62014;SDS011;47970;52.396;9.586;2023-02-26T01:14:31;3.58;;;1.17;;
62014;SDS011;47970;52.396;9.586;2023-02-26T01:24:51;2.00;;;1.00;;
62014;SDS011;47970;52.396;9.586;2023-02-26T01:27:18;1.85;;;0.70;;
62014;SDS011;47970;52.396;9.586;2023-02-26T01:29:43;3.70;;;1.00;;
62014;SDS011;47970;52.396;9.586;2023-02-26T01:34:36;8.03;;;1.53;;
62014;SDS011;47970;52.396;9.586;2023-02-26T01:37:10;6.90;;;1.10;;
62014;SDS011;47970;52.396;9.586;2023-02-26T01:39:39;2.08;;;1.00;;
62014;SDS011;47970;52.396;9.586;2023-02-26T01:42:13;4.18;;;1.23;;
62014;SDS011;47970;52.396;9.586;2023-02-26T01:49:35;3.85;;;1.42;;
62014;SDS011;47970;52.396;9.586;2023-02-26T01:52:04;2.90;;;1.13;;
62014;SDS011;47970;52.396;9.586;2023-02-26T01:54:34;5.07;;;1.42;;
62014;SDS011;47970;52.396;9.586;2023-02-26T01:57:00;3.10;;;1.40;;
62014;SDS011;47970;52.396;9.586;2023-02-26T01:59:29;2.72;;;0.90;;
62014;SDS011;47970;52.396;9.586;2023-02-26T02:01:55;5.30;;;1.23;;
62014;SDS011;47970;52.396;9.586;2023-02-26T02:04:21;7.93;;;1.27;;
62014;SDS011;47970;52.396;9.586;2023-02-26T02:06:47;7.18;;;1.10;;
62014;SDS011;47970;52.396;9.586;2023-02-26T02:09:13;6.55;;;1.23;;
62014;SDS011;47970;52.396;9.586;2023-02-26T02:11:47;3.50;;;1.58;;
62014;SDS011;47970;52.396;9.586;2023-02-26T02:17:00;8.18;;;1.08;;
62014;SDS011;47970;52.396;9.586;2023-02-26T02:29:52;2.80;;;1.10;;
62014;SDS011;47970;52.396;9.586;2023-02-26T02:34:59;4.88;;;1.00;;
62014;SDS011;47970;52.396;9.586;2023-02-26T02:37:29;7.93;;;0.85;;
62014;SDS011;47970;52.396;9.586;2023-02-26T02:39:59;4.32;;;0.93;;
62014;SDS011;47970;52.396;9.586;2023-02-26T02:42:34;1.58;;;0.80;;
62014;SDS011;47970;52.396;9.586;2023-02-26T02:45:04;6.75;;;1.00;;
62014;SDS011;47970;52.396;9.586;2023-02-26T02:47:32;1.05;;;0.77;;
62014;SDS011;47970;52.396;9.586;2023-02-26T02:52:25;4.13;;;0.87;;
62014;SDS011;47970;52.396;9.586;2023-02-26T02:54:55;8.15;;;1.30;;
62014;SDS011;47970;52.396;9.586;2023-02-26T02:57:24;3.00;;;1.42;;
62014;SDS011;47970;52.396;9.586;2023-02-26T02:59:53;8.10;;;0.85;;
62014;SDS011;47970;52.396;9.586;2023-02-26T03:02:27;2.78;;;0.80;;
62014;SDS011;47970;52.396;9.586;2023-02-26T03:04:55;1.30;;;0.63;;
62014;SDS011;47970;52.396;9.586;2023-02-26T03:07:20;4.67;;;0.93;;
62014;SDS011;47970;52.396;9.586;2023-02-26T03:09:45;4.50;;;1.00;;
62014;SDS011;47970;52.396;9.586;2023-02-26T03:12:11;7.22;;;1.00;;
62014;SDS011;47970;52.396;9.586;2023-02-26T03:14:36;12.25;;;1.60;;
62014;SDS011;47970;52.396;9.586;2023-02-26T03:19:28;2.73;;;0.73;;
62014;SDS011;47970;52.396;9.586;2023-02-26T03:21:57;2.63;;;1.13;;
62014;SDS011;47970;52.396;9.586;2023-02-26T03:27:10;11.33;;;1.60;;
62014;SDS011;47970;52.396;9.586;2023-02-26T03:32:06;3.35;;;0.80;;
62014;SDS011;47970;52.396;9.586;2023-02-26T03:34:40;6.65;;;1.20;;
62014;SDS011;47970;52.396;9.586;2023-02-26T03:37:10;3.13;;;0.95;;
62014;SDS011;47970;52.396;9.586;2023-02-26T03:39:40;5.75;;;1.10;;
62014;SDS011;47970;52.396;9.586;2023-02-26T03:44:48;4.57;;;0.80;;
62014;SDS011;47970;52.396;9.586;2023-02-26T03:47:17;3.28;;;1.02;;
62014;SDS011;47970;52.396;9.586;2023-02-26T03:49:47;7.60;;;1.35;;
62014;SDS011;47970;52.396;9.586;2023-02-26T03:52:14;2.65;;;0.77;;
62014;SDS011;47970;52.396;9.586;2023-02-26T03:54:45;5.80;;;1.10;;
62014;SDS011;47970;52.396;9.586;2023-02-26T03:57:10;5.78;;;1.80;;
62014;SDS011;47970;52.396;9.586;2023-02-26T03:59:36;4.88;;;1.02;;
62014;SDS011;47970;52.396;9.586;2023-02-26T04:02:02;2.00;;;0.80;;
62014;SDS011;47970;52.396;9.586;2023-02-26T04:04:40;3.20;;;1.00;;
62014;SDS011;47970;52.396;9.586;2023-02-26T04:07:06;2.75;;;1.05;;
62014;SDS011;47970;52.396;9.586;2023-02-26T04:09:31;3.42;;;1.02;;
62014;SDS011;47970;52.396;9.586;2023-02-26T04:11:57;3.22;;;0.88;;
62014;SDS011;47970;52.396;9.586;2023-02-26T04:14:22;1.92;;;0.80;;
62014;SDS011;47970;52.396;9.586;2023-02-26T04:16:47;3.60;;;0.85;;
62014;SDS011;47970;52.396;9.586;2023-02-26T04:19:13;6.93;;;1.38;;
62014;SDS011;47970;52.396;9.586;2023-02-26T04:21:38;3.00;;;1.05;;
62014;SDS011;47970;52.396;9.586;2023-02-26T04:24:03;2.00;;;0.82;;
62014;SDS011;47970;52.396;9.586;2023-02-26T04:26:28;3.25;;;0.90;;
62014;SDS011;47970;52.396;9.586;2023-02-26T04:28:54;5.27;;;0.70;;
62014;SDS011;47970;52.396;9.586;2023-02-26T04:31:19;5.15;;;1.02;;
62014;SDS011;47970;52.396;9.586;2023-02-26T04:33:44;2.45;;;0.90;;
62014;SDS011;47970;52.396;9.586;2023-02-26T04:36:09;5.68;;;1.42;;
62014;SDS011;47970;52.396;9.586;2023-02-26T04:38:35;2.17;;;0.90;;
62014;SDS011;47970;52.396;9.586;2023-02-26T04:41:00;4.68;;;1.60;;
62014;SDS011;47970;52.396;9.586;2023-02-26T04:43:26;3.58;;;1.00;;
62014;SDS011;47970;52.396;9.586;2023-02-26T04:45:51;2.88;;;1.08;;
62014;SDS011;47970;52.396;9.586;2023-02-26T04:48:16;1.57;;;0.43;;
62014;SDS011;47970;52.396;9.586;2023-02-26T04:50:42;1.92;;;1.00;;
62014;SDS011;47970;52.396;9.586;2023-02-26T04:53:07;3.17;;;1.10;;
62014;SDS011;47970;52.396;9.586;2023-02-26T04:55:33;4.35;;;0.98;;
62014;SDS011;47970;52.396;9.586;2023-02-26T04:57:58;2.45;;;0.80;;
62014;SDS011;47970;52.396;9.586;2023-02-26T05:00:24;4.45;;;0.80;;
62014;SDS011;47970;52.396;9.586;2023-02-26T05:02:49;3.47;;;0.73;;
62014;SDS011;47970;52.396;9.586;2023-02-26T05:05:15;2.10;;;0.70;;
62014;SDS011;47970;52.396;9.586;2023-02-26T05:07:40;2.88;;;0.82;;
62014;SDS011;47970;52.396;9.586;2023-02-26T05:10:05;4.63;;;1.10;;
62014;SDS011;47970;52.396;9.586;2023-02-26T05:12:31;2.17;;;0.80;;
62014;SDS011;47970;52.396;9.586;2023-02-26T05:14:56;4.95;;;1.17;;
62014;SDS011;47970;52.396;9.586;2023-02-26T05:17:21;2.05;;;0.75;;
62014;SDS011;47970;52.396;9.586;2023-02-26T05:19:47;5.75;;;0.88;;
62014;SDS011;47970;52.396;9.586;2023-02-26T05:22:12;3.30;;;1.00;;
62014;SDS011;47970;52.396;9.586;2023-02-26T05:24:38;6.28;;;0.80;;
62014;SDS011;47970;52.396;9.586;2023-02-26T05:27:03;4.28;;;0.90;;
62014;SDS011;47970;52.396;9.586;2023-02-26T05:29:28;1.57;;;0.60;;
62014;SDS011;47970;52.396;9.586;2023-02-26T05:31:53;2.10;;;0.63;;
62014;SDS011;47970;52.396;9.586;2023-02-26T05:34:18;3.00;;;1.00;;
62014;SDS011;47970;52.396;9.586;2023-02-26T05:36:44;4.13;;;0.80;;
62014;SDS011;47970;52.396;9.586;2023-02-26T05:39:09;1.83;;;0.60;;
62014;SDS011;47970;52.396;9.586;2023-02-26T05:41:34;3.53;;;0.90;;
62014;SDS011;47970;52.396;9.586;2023-02-26T05:43:59;5.20;;;1.00;;
62014;SDS011;47970;52.396;9.586;2023-02-26T05:46:25;2.30;;;0.80;;
62014;SDS011;47970;52.396;9.586;2023-02-26T05:48:50;2.47;;;1.05;;
62014;SDS011;47970;52.396;9.586;2023-02-26T05:51:15;2.47;;;1.13;;
62014;SDS011;47970;52.396;9.586;2023-02-26T05:53:40;2.50;;;1.00;;
62014;SDS011;47970;52.396;9.586;2023-02-26T05:56:06;5.60;;;0.60;;
62014;SDS011;47970;52.396;9.586;2023-02-26T05:58:31;2.83;;;1.33;;
62014;SDS011;47970;52.396;9.586;2023-02-26T06:00:58;4.28;;;1.02;;
62014;SDS011;47970;52.396;9.586;2023-02-26T06:03:23;2.28;;;0.82;;
62014;SDS011;47970;52.396;9.586;2023-02-26T06:05:48;2.50;;;1.60;;
62014;SDS011;47970;52.396;9.586;2023-02-26T06:08:14;2.77;;;1.20;;
62014;SDS011;47970;52.396;9.586;2023-02-26T06:10:40;3.40;;;1.20;;
62014;SDS011;47970;52.396;9.586;2023-02-26T06:13:05;5.17;;;1.70;;
62014;SDS011;47970;52.396;9.586;2023-02-26T06:15:30;4.53;;;1.47;;
62014;SDS011;47970;52.396;9.586;2023-02-26T06:17:56;5.30;;;0.90;;
62014;SDS011;47970;52.396;9.586;2023-02-26T06:20:21;3.43;;;1.20;;
62014;SDS011;47970;52.396;9.586;2023-02-26T06:22:46;3.72;;;1.23;;
62014;SDS011;47970;52.396;9.586;2023-02-26T06:25:11;3.87;;;1.30;;
62014;SDS011;47970;52.396;9.586;2023-02-26T06:27:37;3.53;;;1.20;;
62014;SDS011;47970;52.396;9.586;2023-02-26T06:30:02;2.40;;;1.10;;
62014;SDS011;47970;52.396;9.586;2023-02-26T06:32:28;4.88;;;1.20;;
62014;SDS011;47970;52.396;9.586;2023-02-26T06:34:53;3.90;;;1.30;;
62014;SDS011;47970;52.396;9.586;2023-02-26T06:37:19;3.88;;;1.30;;
62014;SDS011;47970;52.396;9.586;2023-02-26T06:39:44;3.20;;;1.23;;
62014;SDS011;47970;52.396;9.586;2023-02-26T06:42:10;5.45;;;1.58;;
62014;SDS011;47970;52.396;9.586;2023-02-26T06:44:35;4.20;;;1.20;;
62014;SDS011;47970;52.396;9.586;2023-02-26T06:47:00;4.37;;;1.50;;
62014;SDS011;47970;52.396;9.586;2023-02-26T06:49:25;5.03;;;0.97;;
62014;SDS011;47970;52.396;9.586;2023-02-26T06:51:50;3.53;;;1.27;;
62014;SDS011;47970;52.396;9.586;2023-02-26T06:54:15;1.27;;;0.67;;
62014;SDS011;47970;52.396;9.586;2023-02-26T06:56:41;2.53;;;1.00;;
62014;SDS011;47970;52.396;9.586;2023-02-26T06:59:06;2.87;;;1.00;;
62014;SDS011;47970;52.396;9.586;2023-02-26T07:01:32;5.22;;;1.10;;
62014;SDS011;47970;52.396;9.586;2023-02-26T07:03:57;2.60;;;1.10;;
62014;SDS011;47970;52.396;9.586;2023-02-26T07:06:22;1.85;;;0.63;;
62014;SDS011;47970;52.396;9.586;2023-02-26T07:08:48;5.80;;;1.63;;
62014;SDS011;47970;52.396;9.586;2023-02-26T07:11:13;5.50;;;1.23;;
62014;SDS011;47970;52.396;9.586;2023-02-26T07:13:38;7.45;;;1.35;;
62014;SDS011;47970;52.396;9.586;2023-02-26T07:16:04;3.38;;;0.98;;
62014;SDS011;47970;52.396;9.586;2023-02-26T07:18:31;3.78;;;1.48;;
62014;SDS011;47970;52.396;9.586;2023-02-26T07:20:56;8.23;;;1.67;;
62014;SDS011;47970;52.396;9.586;2023-02-26T07:23:22;1.52;;;0.75;;
62014;SDS011;47970;52.396;9.586;2023-02-26T07:25:48;2.53;;;0.73;;
62014;SDS011;47970;52.396;9.586;2023-02-26T07:28:13;2.30;;;1.08;;
62014;SDS011;47970;52.396;9.586;2023-02-26T07:30:38;3.15;;;1.08;;
62014;SDS011;47970;52.396;9.586;2023-02-26T07:33:06;4.45;;;1.00;;
62014;SDS011;47970;52.396;9.586;2023-02-26T07:35:31;2.72;;;0.82;;
62014;SDS011;47970;52.396;9.586;2023-02-26T07:37:56;2.35;;;0.80;;
62014;SDS011;47970;52.396;9.586;2023-02-26T07:40:21;3.63;;;1.00;;
62014;SDS011;47970;52.396;9.586;2023-02-26T07:42:47;3.47;;;1.20;;
62014;SDS011;47970;52.396;9.586;2023-02-26T07:45:12;4.88;;;1.23;;
62014;SDS011;47970;52.396;9.586;2023-02-26T07:47:37;4.60;;;1.27;;
62014;SDS011;47970;52.396;9.586;2023-02-26T07:50:03;7.53;;;1.13;;
62014;SDS011;47970;52.396;9.586;2023-02-26T07:52:28;1.98;;;0.90;;
62014;SDS011;47970;52.396;9.586;2023-02-26T07:54:54;2.72;;;1.05;;
62014;SDS011;47970;52.396;9.586;2023-02-26T07:57:19;4.05;;;1.25;;
62014;SDS011;47970;52.396;9.586;2023-02-26T07:59:44;3.40;;;1.30;;
62014;SDS011;47970;52.396;9.586;2023-02-26T08:02:10;6.95;;;1.60;;
62014;SDS011;47970;52.396;9.586;2023-02-26T08:04:35;6.70;;;1.70;;
62014;SDS011;47970;52.396;9.586;2023-02-26T08:07:01;5.23;;;1.90;;
62014;SDS011;47970;52.396;9.586;2023-02-26T08:09:26;6.70;;;2.20;;
62014;SDS011;47970;52.396;9.586;2023-02-26T08:11:51;5.13;;;1.50;;
62014;SDS011;47970;52.396;9.586;2023-02-26T08:14:16;5.33;;;1.53;;
62014;SDS011;47970;52.396;9.586;2023-02-26T08:16:42;3.75;;;1.35;;
62014;SDS011;47970;52.396;9.586;2023-02-26T08:19:07;9.32;;;1.95;;
62014;SDS011;47970;52.396;9.586;2023-02-26T08:21:32;5.97;;;1.65;;
62014;SDS011;47970;52.396;9.586;2023-02-26T08:23:57;5.97;;;1.90;;
62014;SDS011;47970;52.396;9.586;2023-02-26T08:26:23;3.92;;;1.45;;
62014;SDS011;47970;52.396;9.586;2023-02-26T08:28:48;2.80;;;1.33;;
62014;SDS011;47970;52.396;9.586;2023-02-26T08:31:14;7.03;;;2.17;;
62014;SDS011;47970;52.396;9.586;2023-02-26T08:33:39;2.85;;;1.25;;
62014;SDS011;47970;52.396;9.586;2023-02-26T08:36:05;3.33;;;0.80;;
62014;SDS011;47970;52.396;9.586;2023-02-26T08:38:30;4.78;;;1.00;;
62014;SDS011;47970;52.396;9.586;2023-02-26T08:40:55;2.65;;;1.00;;
62014;SDS011;47970;52.396;9.586;2023-02-26T08:43:21;4.75;;;1.20;;
62014;SDS011;47970;52.396;9.586;2023-02-26T08:45:46;6.10;;;1.75;;
62014;SDS011;47970;52.396;9.586;2023-02-26T08:48:12;5.35;;;1.45;;
62014;SDS011;47970;52.396;9.586;2023-02-26T08:50:37;6.55;;;0.90;;
62014;SDS011;47970;52.396;9.586;2023-02-26T08:53:02;5.30;;;0.77;;
62014;SDS011;47970;52.396;9.586;2023-02-26T08:55:28;5.18;;;1.00;;
62014;SDS011;47970;52.396;9.586;2023-02-26T08:57:53;4.43;;;0.82;;
62014;SDS011;47970;52.396;9.586;2023-02-26T09:00:18;3.80;;;0.70;;
62014;SDS011;47970;52.396;9.586;2023-02-26T09:02:44;4.20;;;0.90;;
62014;SDS011;47970;52.396;9.586;2023-02-26T09:05:09;2.17;;;0.90;;
62014;SDS011;47970;52.396;9.586;2023-02-26T09:07:36;5.85;;;1.08;;
62014;SDS011;47970;52.396;9.586;2023-02-26T09:10:01;1.48;;;0.55;;
62014;SDS011;47970;52.396;9.586;2023-02-26T09:12:26;3.37;;;0.90;;
62014;SDS011;47970;52.396;9.586;2023-02-26T09:14:51;2.10;;;0.53;;
62014;SDS011;47970;52.396;9.586;2023-02-26T09:17:17;3.27;;;0.90;;
62014;SDS011;47970;52.396;9.586;2023-02-26T09:19:42;2.40;;;1.00;;
62014;SDS011;47970;52.396;9.586;2023-02-26T09:22:07;3.80;;;0.70;;
62014;SDS011;47970;52.396;9.586;2023-02-26T09:24:33;2.07;;;0.60;;
62014;SDS011;47970;52.396;9.586;2023-02-26T09:26:58;5.20;;;1.20;;
62014;SDS011;47970;52.396;9.586;2023-02-26T09:29:24;5.88;;;0.93;;
62014;SDS011;47970;52.396;9.586;2023-02-26T09:31:49;2.50;;;0.80;;
62014;SDS011;47970;52.396;9.586;2023-02-26T09:34:15;3.40;;;0.90;;
62014;SDS011;47970;52.396;9.586;2023-02-26T09:36:40;1.60;;;0.60;;
62014;SDS011;47970;52.396;9.586;2023-02-26T09:39:05;1.63;;;0.60;;
62014;SDS011;47970;52.396;9.586;2023-02-26T09:41:37;5.20;;;0.55;;
62014;SDS011;47970;52.396;9.586;2023-02-26T09:46:35;4.28;;;0.75;;
62014;SDS011;47970;52.396;9.586;2023-02-26T09:49:49;1.58;;;0.80;;
62014;SDS011;47970;52.396;9.586;2023-02-26T09:51:53;3.88;;;1.00;;
62014;SDS011;47970;52.396;9.586;2023-02-26T09:54:23;3.22;;;0.90;;
62014;SDS011;47970;52.396;9.586;2023-02-26T09:56:49;1.85;;;0.60;;
62014;SDS011;47970;52.396;9.586;2023-02-26T09:59:15;2.45;;;0.60;;
62014;SDS011;47970;52.396;9.586;2023-02-26T10:01:44;3.45;;;0.70;;
62014;SDS011;47970;52.396;9.586;2023-02-26T10:06:43;3.33;;;0.70;;
62014;SDS011;47970;52.396;9.586;2023-02-26T10:14:10;2.10;;;0.50;;
62014;SDS011;47970;52.396;9.586;2023-02-26T10:16:38;5.15;;;0.80;;
62014;SDS011;47970;52.396;9.586;2023-02-26T10:19:13;1.20;;;0.40;;
62014;SDS011;47970;52.396;9.586;2023-02-26T10:21:51;3.78;;;0.80;;
62014;SDS011;47970;52.396;9.586;2023-02-26T10:24:21;2.33;;;0.70;;
62014;SDS011;47970;52.396;9.586;2023-02-26T10:26:52;1.48;;;0.50;;
62014;SDS011;47970;52.396;9.586;2023-02-26T10:29:20;1.33;;;0.50;;
62014;SDS011;47970;52.396;9.586;2023-02-26T10:41:40;2.60;;;0.70;;
62014;SDS011;47970;52.396;9.586;2023-02-26T10:44:09;1.25;;;0.63;;
62014;SDS011;47970;52.396;9.586;2023-02-26T10:46:39;3.13;;;0.43;;
62014;SDS011;47970;52.396;9.586;2023-02-26T10:49:20;2.75;;;0.40;;
62014;SDS011;47970;52.396;9.586;2023-02-26T10:51:46;3.15;;;0.80;;
62014;SDS011;47970;52.396;9.586;2023-02-26T10:54:20;2.78;;;0.73;;
62014;SDS011;47970;52.396;9.586;2023-02-26T10:56:47;1.38;;;0.52;;
62014;SDS011;47970;52.396;9.586;2023-02-26T10:59:12;1.47;;;0.53;;
62014;SDS011;47970;52.396;9.586;2023-02-26T11:01:38;0.98;;;0.30;;
62014;SDS011;47970;52.396;9.586;2023-02-26T11:04:13;1.92;;;0.57;;
62014;SDS011;47970;52.396;9.586;2023-02-26T11:06:40;1.42;;;0.60;;
62014;SDS011;47970;52.396;9.586;2023-02-26T11:09:12;2.88;;;0.40;;
62014;SDS011;47970;52.396;9.586;2023-02-26T11:11:42;2.75;;;1.10;;
62014;SDS011;47970;52.396;9.586;2023-02-26T11:14:09;2.58;;;0.88;;
62014;SDS011;47970;52.396;9.586;2023-02-26T11:16:40;4.07;;;0.77;;
62014;SDS011;47970;52.396;9.586;2023-02-26T11:19:06;5.78;;;1.00;;
62014;SDS011;47970;52.396;9.586;2023-02-26T11:21:36;2.85;;;0.98;;
62014;SDS011;47970;52.396;9.586;2023-02-26T11:24:48;1.65;;;0.50;;
62014;SDS011;47970;52.396;9.586;2023-02-26T11:26:48;3.05;;;0.57;;
62014;SDS011;47970;52.396;9.586;2023-02-26T11:29:15;2.53;;;0.60;;
62014;SDS011;47970;52.396;9.586;2023-02-26T11:31:41;2.35;;;0.50;;
62014;SDS011;47970;52.396;9.586;2023-02-26T11:34:07;3.50;;;0.52;;
62014;SDS011;47970;52.396;9.586;2023-02-26T11:36:36;2.00;;;0.70;;
62014;SDS011;47970;52.396;9.586;2023-02-26T11:39:04;1.70;;;0.60;;
62014;SDS011;47970;52.396;9.586;2023-02-26T11:41:30;1.77;;;0.50;;
62014;SDS011;47970;52.396;9.586;2023-02-26T11:44:00;2.33;;;0.60;;
62014;SDS011;47970;52.396;9.586;2023-02-26T11:46:26;2.70;;;0.50;;
62014;SDS011;47970;52.396;9.586;2023-02-26T11:48:52;1.65;;;0.40;;
62014;SDS011;47970;52.396;9.586;2023-02-26T11:51:20;2.83;;;0.60;;
62014;SDS011;47970;52.396;9.586;2023-02-26T11:53:48;7.38;;;0.80;;
62014;SDS011;47970;52.396;9.586;2023-02-26T11:56:17;1.75;;;0.70;;
62014;SDS011;47970;52.396;9.586;2023-02-26T11:58:44;0.88;;;0.45;;
62014;SDS011;47970;52.396;9.586;2023-02-26T12:01:11;0.90;;;0.52;;
62014;SDS011;47970;52.396;9.586;2023-02-26T12:03:37;3.85;;;0.50;;
62014;SDS011;47970;52.396;9.586;2023-02-26T12:06:04;1.90;;;0.63;;
62014;SDS011;47970;52.396;9.586;2023-02-26T12:08:31;2.17;;;0.80;;
62014;SDS011;47970;52.396;9.586;2023-02-26T12:18:55;3.42;;;0.40;;
62014;SDS011;47970;52.396;9.586;2023-02-26T12:26:41;2.20;;;0.60;;
62014;SDS011;47970;52.396;9.586;2023-02-26T12:29:14;5.35;;;1.48;;
62014;SDS011;47970;52.396;9.586;2023-02-26T12:42:31;3.42;;;0.77;;
62014;SDS011;47970;52.396;9.586;2023-02-26T12:47:38;1.98;;;0.70;;
62014;SDS011;47970;52.396;9.586;2023-02-26T12:58:04;5.63;;;0.85;;
62014;SDS011;47970;52.396;9.586;2023-02-26T13:09:09;2.75;;;0.95;;
62014;SDS011;47970;52.396;9.586;2023-02-26T13:13:52;2.35;;;0.75;;
62014;SDS011;47970;52.396;9.586;2023-02-26T13:18:57;2.95;;;0.70;;
62014;SDS011;47970;52.396;9.586;2023-02-26T13:21:26;1.67;;;0.80;;
62014;SDS011;47970;52.396;9.586;2023-02-26T13:26:29;2.35;;;1.08;;
62014;SDS011;47970;52.396;9.586;2023-02-26T13:29:00;1.77;;;0.60;;
62014;SDS011;47970;52.396;9.586;2023-02-26T13:31:35;1.45;;;0.70;;
62014;SDS011;47970;52.396;9.586;2023-02-26T13:34:03;1.90;;;0.90;;
62014;SDS011;47970;52.396;9.586;2023-02-26T13:36:30;3.17;;;0.80;;
62014;SDS011;47970;52.396;9.586;2023-02-26T13:41:35;0.77;;;0.60;;
62014;SDS011;47970;52.396;9.586;2023-02-26T13:46:32;2.47;;;0.60;;
62014;SDS011;47970;52.396;9.586;2023-02-26T13:49:21;2.15;;;0.80;;
62014;SDS011;47970;52.396;9.586;2023-02-26T13:51:48;1.92;;;0.82;;
62014;SDS011;47970;52.396;9.586;2023-02-26T14:06:56;2.83;;;0.50;;
62014;SDS011;47970;52.396;9.586;2023-02-26T14:14:23;2.58;;;1.23;;
62014;SDS011;47970;52.396;9.586;2023-02-26T14:24:58;2.85;;;0.82;;
62014;SDS011;47970;52.396;9.586;2023-02-26T14:27:32;2.55;;;0.57;;
62014;SDS011;47970;52.396;9.586;2023-02-26T14:29:59;1.80;;;0.75;;
62014;SDS011;47970;52.396;9.586;2023-02-26T14:32:38;2.17;;;0.60;;
62014;SDS011;47970;52.396;9.586;2023-02-26T14:35:18;1.48;;;0.60;;
62014;SDS011;47970;52.396;9.586;2023-02-26T14:37:48;1.83;;;0.70;;
62014;SDS011;47970;52.396;9.586;2023-02-26T14:40:19;0.57;;;0.40;;
62014;SDS011;47970;52.396;9.586;2023-02-26T14:42:47;5.63;;;1.17;;
62014;SDS011;47970;52.396;9.586;2023-02-26T14:45:21;1.88;;;0.60;;
62014;SDS011;47970;52.396;9.586;2023-02-26T14:47:49;2.85;;;0.40;;
62014;SDS011;47970;52.396;9.586;2023-02-26T14:50:16;1.25;;;0.45;;
62014;SDS011;47970;52.396;9.586;2023-02-26T14:55:26;2.67;;;0.63;;
62014;SDS011;47970;52.396;9.586;2023-02-26T15:03:14;2.13;;;0.80;;
62014;SDS011;47970;52.396;9.586;2023-02-26T15:05:52;1.40;;;0.65;;
62014;SDS011;47970;52.396;9.586;2023-02-26T15:08:31;1.25;;;0.65;;
62014;SDS011;47970;52.396;9.586;2023-02-26T15:11:04;1.05;;;0.60;;
62014;SDS011;47970;52.396;9.586;2023-02-26T15:21:00;2.40;;;0.70;;
62014;SDS011;47970;52.396;9.586;2023-02-26T15:23:41;1.10;;;0.25;;
62014;SDS011;47970;52.396;9.586;2023-02-26T15:26:07;1.98;;;0.80;;
62014;SDS011;47970;52.396;9.586;2023-02-26T15:28:38;2.05;;;0.77;;
62014;SDS011;47970;52.396;9.586;2023-02-26T15:31:05;0.88;;;0.20;;
62014;SDS011;47970;52.396;9.586;2023-02-26T15:33:31;0.95;;;0.40;;
62014;SDS011;47970;52.396;9.586;2023-02-26T15:35:57;1.48;;;0.47;;
62014;SDS011;47970;52.396;9.586;2023-02-26T15:38:22;2.10;;;0.50;;
62014;SDS011;47970;52.396;9.586;2023-02-26T15:40:48;3.25;;;0.82;;
62014;SDS011;47970;52.396;9.586;2023-02-26T15:43:15;1.50;;;0.70;;
62014;SDS011;47970;52.396;9.586;2023-02-26T15:45:43;2.55;;;0.70;;
62014;SDS011;47970;52.396;9.586;2023-02-26T15:48:11;0.90;;;0.50;;
62014;SDS011;47970;52.396;9.586;2023-02-26T15:50:39;1.13;;;0.50;;
62014;SDS011;47970;52.396;9.586;2023-02-26T15:53:06;2.45;;;0.75;;
62014;SDS011;47970;52.396;9.586;2023-02-26T15:55:36;2.90;;;0.85;;
62014;SDS011;47970;52.396;9.586;2023-02-26T16:00:27;3.17;;;1.02;;
62014;SDS011;47970;52.396;9.586;2023-02-26T16:02:56;3.05;;;0.73;;
62014;SDS011;47970;52.396;9.586;2023-02-26T16:05:24;2.42;;;0.73;;
62014;SDS011;47970;52.396;9.586;2023-02-26T16:07:49;1.00;;;0.43;;
62014;SDS011;47970;52.396;9.586;2023-02-26T16:10:26;1.02;;;0.60;;
62014;SDS011;47970;52.396;9.586;2023-02-26T16:12:52;1.60;;;0.68;;
62014;SDS011;47970;52.396;9.586;2023-02-26T16:15:22;2.80;;;0.55;;
62014;SDS011;47970;52.396;9.586;2023-02-26T16:17:50;0.98;;;0.55;;
62014;SDS011;47970;52.396;9.586;2023-02-26T16:20:18;1.75;;;0.73;;
62014;SDS011;47970;52.396;9.586;2023-02-26T16:22:48;1.48;;;0.60;;
62014;SDS011;47970;52.396;9.586;2023-02-26T16:25:17;1.65;;;0.90;;
62014;SDS011;47970;52.396;9.586;2023-02-26T16:27:47;2.72;;;0.93;;
62014;SDS011;47970;52.396;9.586;2023-02-26T16:30:13;1.55;;;0.80;;
62014;SDS011;47970;52.396;9.586;2023-02-26T16:32:40;1.20;;;0.55;;
62014;SDS011;47970;52.396;9.586;2023-02-26T16:35:16;1.98;;;0.50;;
62014;SDS011;47970;52.396;9.586;2023-02-26T16:37:45;3.85;;;0.90;;
62014;SDS011;47970;52.396;9.586;2023-02-26T16:45:19;5.00;;;0.90;;
62014;SDS011;47970;52.396;9.586;2023-02-26T16:47:50;3.03;;;0.88;;
62014;SDS011;47970;52.396;9.586;2023-02-26T16:50:18;0.98;;;0.70;;
62014;SDS011;47970;52.396;9.586;2023-02-26T16:52:45;3.42;;;1.65;;
62014;SDS011;47970;52.396;9.586;2023-02-26T16:55:11;2.58;;;1.20;;
62014;SDS011;47970;52.396;9.586;2023-02-26T16:57:42;5.13;;;1.40;;
62014;SDS011;47970;52.396;9.586;2023-02-26T17:00:16;3.00;;;1.10;;
62014;SDS011;47970;52.396;9.586;2023-02-26T17:02:42;3.30;;;1.20;;
62014;SDS011;47970;52.396;9.586;2023-02-26T17:05:30;2.22;;;1.10;;
62014;SDS011;47970;52.396;9.586;2023-02-26T17:07:55;5.47;;;1.15;;
62014;SDS011;47970;52.396;9.586;2023-02-26T17:10:28;2.15;;;1.00;;
62014;SDS011;47970;52.396;9.586;2023-02-26T17:13:01;2.53;;;1.13;;
62014;SDS011;47970;52.396;9.586;2023-02-26T17:15:33;3.17;;;1.52;;
62014;SDS011;47970;52.396;9.586;2023-02-26T17:17:59;4.07;;;1.20;;
62014;SDS011;47970;52.396;9.586;2023-02-26T17:20:25;2.75;;;1.20;;
62014;SDS011;47970;52.396;9.586;2023-02-26T17:22:51;3.78;;;1.35;;
62014;SDS011;47970;52.396;9.586;2023-02-26T17:25:17;3.58;;;1.27;;
62014;SDS011;47970;52.396;9.586;2023-02-26T17:27:43;2.50;;;1.20;;
62014;SDS011;47970;52.396;9.586;2023-02-26T17:30:10;4.90;;;2.10;;
62014;SDS011;47970;52.396;9.586;2023-02-26T17:32:36;5.72;;;2.47;;
62014;SDS011;47970;52.396;9.586;2023-02-26T17:35:02;6.30;;;3.10;;
62014;SDS011;47970;52.396;9.586;2023-02-26T17:37:29;13.15;;;5.13;;
62014;SDS011;47970;52.396;9.586;2023-02-26T17:39:55;19.60;;;6.13;;
62014;SDS011;47970;52.396;9.586;2023-02-26T17:42:21;27.48;;;10.57;;
62014;SDS011;47970;52.396;9.586;2023-02-26T17:44:47;31.00;;;11.13;;
62014;SDS011;47970;52.396;9.586;2023-02-26T17:47:17;25.52;;;10.52;;
62014;SDS011;47970;52.396;9.586;2023-02-26T17:52:08;14.75;;;6.50;;